createdAt,value
2023-05-12T00:00:03.930Z,10.61
2023-05-12T00:01:33.291Z,10.51
2023-05-12T00:02:34.738Z,10.45
2023-05-12T00:03:36.289Z,10.39
2023-05-12T00:04:39.782Z,10.33
2023-05-12T00:05:41.207Z,10.27
2023-05-12T00:06:42.763Z,10.22
2023-05-12T00:07:44.128Z,10.17
2023-05-12T00:08:45.506Z,10.15
2023-05-12T00:09:46.815Z,10.22
2023-05-12T00:10:48.224Z,10.33
2023-05-12T00:11:50.040Z,10.44
2023-05-12T00:12:51.461Z,10.55
2023-05-12T00:13:54.793Z,10.63
2023-05-12T00:14:56.253Z,10.72
2023-05-12T00:15:58.439Z,10.79
2023-05-12T00:17:00.471Z,10.85
2023-05-12T00:18:01.915Z,10.90
2023-05-12T00:19:03.463Z,10.96
2023-05-12T00:20:05.888Z,10.99
2023-05-12T00:21:08.020Z,11.03
2023-05-12T00:22:10.842Z,11.07
2023-05-12T00:23:12.328Z,11.10
2023-05-12T00:24:13.940Z,11.13
2023-05-12T00:25:15.511Z,11.15
2023-05-12T00:26:16.958Z,11.17
2023-05-12T00:27:20.027Z,11.19
2023-05-12T00:28:21.398Z,11.21
2023-05-12T00:29:22.785Z,11.24
2023-05-12T00:30:24.291Z,11.26
2023-05-12T00:31:26.132Z,11.27
2023-05-12T00:32:29.000Z,11.29
2023-05-12T00:33:30.741Z,11.31
2023-05-12T00:34:32.160Z,11.31
2023-05-12T00:35:33.750Z,11.26
2023-05-12T00:36:35.374Z,11.14
2023-05-12T00:37:37.250Z,11.01
2023-05-12T00:38:38.703Z,10.86
2023-05-12T00:39:40.208Z,10.72
2023-05-12T00:40:41.631Z,10.60
2023-05-12T00:41:43.888Z,10.48
2023-05-12T00:42:45.505Z,10.37
2023-05-12T00:43:46.876Z,10.28
2023-05-12T00:44:48.329Z,10.19
2023-05-12T00:45:50.357Z,10.11
2023-05-12T00:46:52.126Z,10.03
2023-05-12T00:47:54.131Z,9.96
2023-05-12T00:48:55.580Z,9.89
2023-05-12T00:49:57.755Z,9.83
2023-05-12T00:51:00.108Z,9.76
2023-05-12T00:52:02.500Z,9.76
2023-05-12T00:53:05.788Z,9.83
2023-05-12T00:54:07.847Z,9.94
2023-05-12T00:55:09.316Z,10.05
2023-05-12T00:56:12.809Z,10.15
2023-05-12T00:57:14.261Z,10.25
2023-05-12T00:58:15.754Z,10.32
2023-05-12T00:59:17.347Z,10.39
2023-05-12T01:00:19.197Z,10.44
2023-05-12T01:01:22.409Z,10.50
2023-05-12T01:02:27.003Z,10.54
2023-05-12T01:03:31.361Z,10.59
2023-05-12T01:04:35.397Z,10.62
2023-05-12T01:05:58.250Z,10.64
2023-05-12T01:07:05.185Z,10.67
2023-05-12T01:08:08.747Z,10.71
2023-05-12T01:09:10.817Z,10.73
2023-05-12T01:10:21.740Z,10.76
2023-05-12T01:11:24.031Z,10.78
2023-05-12T01:12:27.315Z,10.79
2023-05-12T01:13:28.870Z,10.82
2023-05-12T01:14:30.817Z,10.84
2023-05-12T01:15:32.928Z,10.85
2023-05-12T01:16:50.788Z,10.86
2023-05-12T01:17:58.185Z,10.80
2023-05-12T01:19:04.661Z,10.67
2023-05-12T01:20:08.294Z,10.50
2023-05-12T01:21:10.651Z,10.35
2023-05-12T01:22:12.568Z,10.21
2023-05-12T01:23:17.811Z,10.08
2023-05-12T01:24:23.483Z,9.96
2023-05-12T01:25:28.130Z,9.86
2023-05-12T01:26:31.720Z,9.77
2023-05-12T01:27:34.095Z,9.69
2023-05-12T01:28:37.070Z,9.61
2023-05-12T01:29:39.731Z,9.54
2023-05-12T01:32:42.010Z,9.38
2023-05-12T01:33:43.739Z,9.32
2023-05-12T01:34:46.133Z,9.28
2023-05-12T01:35:47.489Z,9.30
2023-05-12T01:36:49.268Z,9.38
2023-05-12T01:37:51.391Z,9.50
2023-05-12T01:38:52.855Z,9.63
2023-05-12T01:39:54.659Z,9.73
2023-05-12T01:40:56.541Z,9.83
2023-05-12T01:41:58.036Z,9.92
2023-05-12T01:42:59.748Z,10.00
2023-05-12T01:44:05.092Z,10.06
2023-05-12T01:45:07.752Z,10.12
2023-05-12T01:46:10.246Z,10.17
2023-05-12T01:47:15.103Z,10.22
2023-05-12T01:48:20.459Z,10.27
2023-05-12T01:49:22.531Z,10.31
2023-05-12T01:50:24.359Z,10.35
2023-05-12T01:51:26.001Z,10.38
2023-05-12T01:52:28.244Z,10.41
2023-05-12T01:53:29.622Z,10.43
2023-05-12T01:54:31.122Z,10.46
2023-05-12T01:55:33.811Z,10.47
2023-05-12T01:56:35.787Z,10.49
2023-05-12T01:57:37.778Z,10.51
2023-05-12T01:58:39.761Z,10.52
2023-05-12T01:59:42.003Z,10.54
2023-05-12T02:00:43.384Z,10.55
2023-05-12T02:01:47.167Z,10.57
2023-05-12T02:02:51.247Z,10.58
2023-05-12T02:03:52.778Z,10.52
2023-05-12T02:04:56.510Z,10.39
2023-05-12T02:05:57.956Z,10.24
2023-05-12T02:07:01.115Z,10.10
2023-05-12T02:08:03.590Z,9.94
2023-05-12T02:09:05.104Z,9.82
2023-05-12T02:10:07.316Z,9.70
2023-05-12T02:11:09.091Z,9.60
2023-05-12T02:12:10.640Z,9.51
2023-05-12T02:13:12.449Z,9.42
2023-05-12T02:14:14.134Z,9.35
2023-05-12T02:15:15.596Z,9.27
2023-05-12T02:16:19.356Z,9.21
2023-05-12T02:17:20.823Z,9.14
2023-05-12T02:18:23.868Z,9.13
2023-05-12T02:19:25.941Z,9.19
2023-05-12T02:20:28.997Z,9.29
2023-05-12T02:21:30.621Z,9.41
2023-05-12T02:22:32.111Z,9.51
2023-05-12T02:23:33.711Z,9.61
2023-05-12T02:24:35.167Z,9.70
2023-05-12T02:25:37.224Z,9.77
2023-05-12T02:26:38.707Z,9.83
2023-05-12T02:27:40.749Z,9.89
2023-05-12T02:28:42.884Z,9.94
2023-05-12T02:29:44.449Z,9.98
2023-05-12T02:30:49.850Z,10.03
2023-05-12T02:31:51.397Z,10.06
2023-05-12T02:32:54.385Z,10.09
2023-05-12T02:33:56.407Z,10.12
2023-05-12T02:34:58.132Z,10.15
2023-05-12T02:36:00.592Z,10.18
2023-05-12T02:37:02.397Z,10.20
2023-05-12T02:38:04.344Z,10.23
2023-05-12T02:39:07.304Z,10.24
2023-05-12T02:40:09.160Z,10.25
2023-05-12T02:41:10.758Z,10.27
2023-05-12T02:42:12.152Z,10.28
2023-05-12T02:43:13.580Z,10.30
2023-05-12T02:44:16.558Z,10.26
2023-05-12T02:45:18.605Z,10.14
2023-05-12T02:46:20.236Z,9.99
2023-05-12T02:47:21.846Z,9.84
2023-05-12T02:48:23.267Z,9.71
2023-05-12T02:49:24.718Z,9.59
2023-05-12T02:50:26.509Z,9.48
2023-05-12T02:51:28.513Z,9.38
2023-05-12T02:52:30.300Z,9.29
2023-05-12T02:53:31.726Z,9.21
2023-05-12T02:54:33.145Z,9.13
2023-05-12T02:55:34.779Z,9.06
2023-05-12T02:56:36.999Z,9.00
2023-05-12T02:57:38.553Z,8.94
2023-05-12T02:58:40.308Z,8.88
2023-05-12T02:59:41.680Z,8.83
2023-05-12T03:00:43.091Z,8.83
2023-05-12T03:01:44.729Z,8.93
2023-05-12T03:02:46.223Z,9.04
2023-05-12T03:03:47.725Z,9.15
2023-05-12T03:04:49.452Z,9.26
2023-05-12T03:05:52.240Z,9.36
2023-05-12T03:06:53.889Z,9.45
2023-05-12T03:07:55.453Z,9.52
2023-05-12T03:08:57.005Z,9.59
2023-05-12T03:09:58.578Z,9.66
2023-05-12T03:11:00.010Z,9.71
2023-05-12T03:12:02.311Z,9.76
2023-05-12T03:13:04.049Z,9.80
2023-05-12T03:14:05.721Z,9.85
2023-05-12T03:15:08.300Z,9.89
2023-05-12T03:16:10.462Z,9.93
2023-05-12T03:17:12.160Z,9.97
2023-05-12T03:18:13.722Z,10.01
2023-05-12T03:19:15.111Z,10.03
2023-05-12T03:20:16.602Z,10.07
2023-05-12T03:21:18.016Z,10.10
2023-05-12T03:22:19.709Z,10.13
2023-05-12T03:23:21.112Z,10.17
2023-05-12T03:24:22.582Z,10.20
2023-05-12T03:25:24.039Z,10.17
2023-05-12T03:26:26.011Z,10.08
2023-05-12T03:27:30.443Z,9.94
2023-05-12T03:28:31.877Z,9.81
2023-05-12T03:29:36.041Z,9.67
2023-05-12T03:30:37.838Z,9.55
2023-05-12T03:31:39.795Z,9.44
2023-05-12T03:32:41.610Z,9.36
2023-05-12T03:33:44.684Z,9.28
2023-05-12T03:34:46.123Z,9.21
2023-05-12T03:35:47.561Z,9.15
2023-05-12T03:36:49.366Z,9.09
2023-05-12T03:37:50.979Z,9.04
2023-05-12T03:38:52.366Z,9.00
2023-05-12T03:39:55.571Z,8.97
2023-05-12T03:41:04.588Z,8.94
2023-05-12T03:42:08.453Z,8.97
2023-05-12T03:43:10.019Z,9.09
2023-05-12T03:44:12.068Z,9.24
2023-05-12T03:45:13.539Z,9.37
2023-05-12T03:46:15.004Z,9.50
2023-05-12T03:47:17.166Z,9.63
2023-05-12T03:48:19.681Z,9.74
2023-05-12T03:49:21.209Z,9.84
2023-05-12T03:50:22.780Z,9.93
2023-05-12T03:51:24.880Z,10.02
2023-05-12T03:52:26.395Z,10.10
2023-05-12T03:53:27.925Z,10.18
2023-05-12T03:54:30.509Z,10.25
2023-05-12T03:55:32.352Z,10.33
2023-05-12T03:56:33.962Z,10.41
2023-05-12T03:57:36.032Z,10.46
2023-05-12T03:58:38.124Z,10.53
2023-05-12T03:59:40.632Z,10.60
2023-05-12T04:00:42.117Z,10.60
2023-05-12T04:01:43.818Z,10.53
2023-05-12T04:02:45.835Z,10.42
2023-05-12T04:03:49.841Z,10.32
2023-05-12T04:04:51.486Z,10.23
2023-05-12T04:06:03.857Z,10.14
2023-05-12T04:07:07.123Z,10.06
2023-05-12T04:08:10.891Z,10.00
2023-05-12T04:09:12.825Z,9.95
2023-05-12T04:10:14.990Z,9.91
2023-05-12T04:11:17.049Z,9.87
2023-05-12T04:12:20.768Z,9.84
2023-05-12T04:13:22.406Z,9.80
2023-05-12T04:14:39.092Z,9.78
2023-05-12T04:15:41.837Z,9.76
2023-05-12T04:16:48.526Z,9.75
2023-05-12T04:17:51.385Z,9.74
2023-05-12T04:18:59.174Z,9.73
2023-05-12T04:20:02.592Z,9.74
2023-05-12T04:21:06.524Z,9.74
2023-05-12T04:22:08.338Z,9.75
2023-05-12T04:23:14.514Z,9.76
2023-05-12T04:24:17.897Z,9.78
2023-05-12T04:25:22.460Z,9.80
2023-05-12T04:26:26.291Z,9.81
2023-05-12T04:27:32.473Z,9.83
2023-05-12T04:28:53.371Z,9.86
2023-05-12T04:29:56.187Z,9.88
2023-05-12T04:31:04.236Z,9.91
2023-05-12T04:32:08.361Z,9.95
2023-05-12T04:33:13.870Z,9.98
2023-05-12T04:34:31.444Z,10.02
2023-05-12T04:35:34.478Z,10.06
2023-05-12T04:36:41.375Z,10.09
2023-05-12T04:37:48.496Z,10.13
2023-05-12T04:38:55.664Z,10.18
2023-05-12T04:40:07.008Z,10.22
2023-05-12T04:41:13.318Z,10.26
2023-05-12T04:42:29.379Z,10.32
2023-05-12T04:44:52.093Z,10.42
2023-05-12T04:46:09.371Z,10.49
2023-05-12T04:47:28.852Z,10.56
2023-05-12T04:48:54.904Z,10.64
2023-05-12T04:51:19.359Z,10.78
2023-05-12T04:52:24.899Z,10.84
2023-05-12T04:57:16.962Z,11.13
2023-05-12T05:02:18.063Z,11.47
2023-05-12T05:05:56.870Z,11.70
2023-05-12T05:08:16.041Z,11.86
2023-05-12T05:26:09.667Z,13.13
2023-05-12T05:35:11.813Z,13.63
2023-05-12T06:03:43.461Z,15.44
2023-05-12T06:04:45.836Z,15.46
2023-05-12T06:05:47.703Z,15.47
2023-05-12T06:06:49.109Z,15.49
2023-05-12T06:07:50.598Z,15.51
2023-05-12T06:08:55.239Z,15.50
2023-05-12T06:09:56.637Z,15.53
2023-05-12T06:10:58.534Z,15.53
2023-05-12T06:12:00.060Z,15.51
2023-05-12T06:13:01.496Z,15.50
2023-05-12T06:14:03.018Z,15.50
2023-05-12T06:15:04.922Z,15.50
2023-05-12T06:16:06.383Z,15.53
2023-05-12T06:17:08.548Z,15.56
2023-05-12T06:18:10.058Z,15.62
2023-05-12T06:19:11.994Z,15.71
2023-05-12T06:20:15.092Z,15.83
2023-05-12T06:21:16.535Z,15.94
2023-05-12T06:22:17.870Z,16.03
2023-05-12T06:23:20.230Z,16.10
2023-05-12T06:24:21.700Z,16.15
2023-05-12T06:25:23.133Z,16.20
2023-05-12T06:26:24.866Z,16.24
2023-05-12T06:27:26.243Z,16.26
2023-05-12T06:28:27.684Z,16.29
2023-05-12T06:29:29.306Z,16.31
2023-05-12T06:30:30.888Z,16.33
2023-05-12T06:31:32.457Z,16.35
2023-05-12T06:32:34.004Z,16.37
2023-05-12T06:33:35.523Z,16.38
2023-05-12T06:34:36.923Z,16.40
2023-05-12T06:35:38.490Z,16.42
2023-05-12T06:36:40.280Z,16.43
2023-05-12T06:37:44.113Z,16.42
2023-05-12T06:38:49.421Z,16.43
2023-05-12T06:39:51.285Z,16.44
2023-05-12T06:40:52.732Z,16.44
2023-05-12T06:41:54.081Z,16.45
2023-05-12T06:42:55.916Z,16.45
2023-05-12T06:44:01.777Z,16.46
2023-05-12T06:45:03.859Z,16.45
2023-05-12T06:46:07.811Z,16.43
2023-05-12T06:47:09.765Z,16.42
2023-05-12T06:48:11.484Z,16.42
2023-05-12T06:49:13.025Z,16.43
2023-05-12T06:50:16.338Z,16.44
2023-05-12T06:51:17.788Z,16.46
2023-05-12T06:52:20.255Z,16.47
2023-05-12T06:53:23.372Z,16.49
2023-05-12T06:54:28.076Z,16.53
2023-05-12T06:55:29.487Z,16.56
2023-05-12T06:56:31.483Z,16.57
2023-05-12T06:57:32.851Z,16.60
2023-05-12T06:58:34.382Z,16.62
2023-05-12T06:59:35.876Z,16.64
2023-05-12T07:00:37.428Z,16.68
2023-05-12T07:01:38.908Z,16.71
2023-05-12T07:02:40.546Z,16.75
2023-05-12T07:03:42.191Z,16.78
2023-05-12T07:04:44.078Z,16.83
2023-05-12T07:05:45.843Z,16.87
2023-05-12T07:06:47.501Z,16.91
2023-05-12T07:07:48.947Z,16.95
2023-05-12T07:08:50.343Z,16.98
2023-05-12T07:09:51.830Z,17.02
2023-05-12T07:10:53.253Z,17.06
2023-05-12T07:11:54.642Z,17.11
2023-05-12T07:12:56.135Z,17.15
2023-05-12T07:13:57.520Z,17.18
2023-05-12T07:14:59.011Z,17.21
2023-05-12T07:16:00.644Z,17.24
2023-05-12T07:17:02.351Z,17.28
2023-05-12T07:36:21.859Z,16.93
2023-05-12T07:37:23.659Z,16.89
2023-05-12T07:38:25.229Z,16.86
2023-05-12T07:39:26.648Z,16.81
2023-05-12T07:40:28.138Z,16.75
2023-05-12T07:41:29.614Z,16.70
2023-05-12T07:42:31.120Z,16.68
2023-05-12T07:43:32.617Z,16.63
2023-05-12T07:44:34.012Z,16.58
2023-05-12T07:45:36.070Z,16.56
2023-05-12T07:46:37.792Z,16.56
2023-05-12T07:47:39.452Z,16.54
2023-05-12T07:48:40.939Z,16.50
2023-05-12T07:49:42.302Z,16.49
2023-05-12T07:50:43.782Z,16.48
2023-05-12T07:51:45.156Z,16.46
2023-05-12T07:52:48.249Z,16.44
2023-05-12T07:53:49.844Z,16.42
2023-05-12T07:54:51.287Z,16.41
2023-05-12T07:55:52.905Z,16.40
2023-05-12T07:56:54.342Z,16.41
2023-05-12T07:57:55.796Z,16.42
2023-05-12T07:58:57.304Z,16.40
2023-05-12T07:59:59.583Z,16.39
2023-05-12T08:01:05.274Z,16.39
2023-05-12T08:02:07.364Z,16.39
2023-05-12T08:03:09.121Z,16.41
2023-05-12T08:04:11.018Z,16.44
2023-05-12T08:05:12.782Z,16.47
2023-05-12T08:06:14.549Z,16.50
2023-05-12T08:07:15.976Z,16.52
2023-05-12T08:08:17.461Z,16.53
2023-05-12T08:09:18.854Z,16.53
2023-05-12T08:10:20.260Z,16.51
2023-05-12T08:11:21.796Z,16.51
2023-05-12T08:12:23.430Z,16.50
2023-05-12T08:13:25.867Z,16.51
2023-05-12T08:14:27.319Z,16.51
2023-05-12T08:15:28.720Z,16.50
2023-05-12T08:16:30.297Z,16.50
2023-05-12T08:17:32.006Z,16.50
2023-05-12T08:18:33.495Z,16.50
2023-05-12T08:19:34.904Z,16.50
2023-05-12T08:20:36.826Z,16.51
2023-05-12T08:21:38.581Z,16.53
2023-05-12T08:22:40.279Z,16.56
2023-05-12T08:23:41.967Z,16.58
2023-05-12T08:24:44.981Z,16.61
2023-05-12T08:25:47.868Z,16.64
2023-05-12T08:26:49.544Z,16.68
2023-05-12T08:27:50.898Z,16.74
2023-05-12T08:28:52.305Z,16.79
2023-05-12T08:29:53.657Z,16.82
2023-05-12T08:30:55.267Z,16.84
2023-05-12T08:31:57.643Z,16.88
2023-05-12T08:32:59.136Z,16.91
2023-05-12T08:34:09.598Z,16.94
2023-05-12T08:35:12.102Z,16.98
2023-05-12T08:36:13.643Z,17.01
2023-05-12T08:37:15.568Z,17.04
2023-05-12T08:38:16.974Z,17.06
2023-05-12T08:39:19.057Z,17.09
2023-05-12T08:40:22.663Z,17.12
2023-05-12T08:41:41.432Z,17.14
2023-05-12T08:42:48.243Z,17.14
2023-05-12T08:43:51.275Z,17.15
2023-05-12T08:44:53.549Z,17.15
2023-05-12T08:45:58.668Z,17.14
2023-05-12T08:47:01.542Z,17.17
2023-05-12T08:48:07.937Z,17.19
2023-05-12T08:49:15.045Z,17.18
2023-05-12T08:50:20.107Z,17.17
2023-05-12T08:51:23.586Z,17.15
2023-05-12T08:52:26.529Z,17.14
2023-05-12T08:53:29.084Z,17.13
2023-05-12T08:54:33.365Z,17.12
2023-05-12T08:55:35.500Z,17.10
2023-05-12T08:57:45.003Z,17.04
2023-05-12T08:58:47.644Z,17.04
2023-05-12T08:59:52.274Z,17.03
2023-05-12T09:00:54.010Z,17.02
2023-05-12T09:01:56.145Z,17.03
2023-05-12T09:03:00.473Z,17.04
2023-05-12T09:04:03.714Z,17.03
2023-05-12T09:05:05.363Z,17.04
2023-05-12T09:06:08.733Z,17.04
2023-05-12T09:07:10.831Z,17.02
2023-05-12T09:08:13.086Z,17.01
2023-05-12T09:09:16.285Z,17.03
2023-05-12T09:11:25.711Z,17.08
2023-05-12T09:12:32.275Z,17.09
2023-05-12T09:13:54.239Z,17.11
2023-05-12T09:15:03.954Z,17.15
2023-05-12T09:16:10.743Z,17.17
2023-05-12T09:17:13.536Z,17.16
2023-05-12T09:18:14.966Z,17.16
2023-05-12T09:19:20.729Z,17.18
2023-05-12T09:21:33.488Z,17.28
2023-05-12T09:22:35.217Z,17.34
2023-05-12T09:23:36.628Z,17.37
2023-05-12T09:24:41.208Z,17.41
2023-05-12T09:25:46.439Z,17.46
2023-05-12T09:26:49.058Z,17.49
2023-05-12T09:27:55.931Z,17.53
2023-05-12T09:29:07.519Z,17.58
2023-05-12T09:30:09.189Z,17.63
2023-05-12T09:31:24.304Z,17.64
2023-05-12T09:32:33.422Z,17.65
2023-05-12T09:33:36.094Z,17.67
2023-05-12T09:34:40.256Z,17.70
2023-05-12T09:35:43.673Z,17.76
2023-05-12T09:36:57.845Z,17.79
2023-05-12T09:38:08.094Z,17.83
2023-05-12T09:39:09.744Z,17.86
2023-05-12T09:40:15.254Z,17.91
2023-05-12T09:41:21.937Z,17.93
2023-05-12T09:42:27.589Z,17.97
2023-05-12T09:43:29.771Z,18.01
2023-05-12T09:44:31.698Z,18.02
2023-05-12T09:45:37.964Z,18.04
2023-05-12T09:46:40.122Z,18.07
2023-05-12T09:47:41.774Z,18.11
2023-05-12T09:48:47.060Z,18.16
2023-05-12T09:49:51.764Z,18.22
2023-05-12T09:50:53.165Z,18.30
2023-05-12T09:51:58.749Z,18.37
2023-05-12T09:53:01.063Z,18.48
2023-05-12T09:54:04.579Z,18.59
2023-05-12T09:55:10.178Z,18.71
2023-05-12T09:56:16.156Z,18.83
2023-05-12T09:57:20.528Z,18.98
2023-05-12T09:58:24.121Z,19.13
2023-05-12T09:59:30.860Z,19.28
2023-05-12T10:00:43.428Z,19.41
2023-05-12T10:01:58.506Z,19.57
2023-05-12T10:03:00.871Z,19.69
2023-05-12T10:04:06.989Z,19.80
2023-05-12T10:05:17.652Z,19.93
2023-05-12T10:06:29.636Z,20.08
2023-05-12T10:07:32.464Z,20.21
2023-05-12T10:08:43.018Z,20.32
2023-05-12T10:09:47.661Z,20.42
2023-05-12T10:10:51.978Z,20.50
2023-05-12T10:11:54.199Z,20.58
2023-05-12T10:12:56.067Z,20.66
2023-05-12T10:13:58.742Z,20.73
2023-05-12T10:15:02.082Z,20.81
2023-05-12T10:16:04.707Z,20.89
2023-05-12T10:17:07.459Z,20.95
2023-05-12T10:18:10.041Z,21.01
2023-05-12T10:19:13.189Z,21.07
2023-05-12T10:20:16.053Z,21.12
2023-05-12T10:21:18.020Z,21.18
2023-05-12T10:22:20.999Z,21.23
2023-05-12T10:23:22.741Z,21.30
2023-05-12T10:24:28.697Z,21.36
2023-05-12T10:25:30.406Z,21.41
2023-05-12T10:26:32.865Z,21.46
2023-05-12T10:27:35.175Z,21.52
2023-05-12T10:28:37.343Z,21.58
2023-05-12T10:29:39.589Z,21.64
2023-05-12T10:30:42.375Z,21.70
2023-05-12T10:31:44.646Z,21.76
2023-05-12T10:32:46.673Z,21.82
2023-05-12T10:34:02.504Z,21.87
2023-05-12T10:35:12.433Z,21.89
2023-05-12T10:36:19.915Z,21.90
2023-05-12T10:37:24.427Z,21.90
2023-05-12T10:38:26.375Z,21.90
2023-05-12T10:39:32.147Z,21.90
2023-05-12T10:40:33.801Z,21.91
2023-05-12T10:41:35.710Z,21.93
2023-05-12T10:42:39.157Z,21.95
2023-05-12T10:43:43.186Z,21.96
2023-05-12T10:44:52.227Z,21.98
2023-05-12T10:46:12.104Z,22.00
2023-05-12T10:47:16.602Z,22.05
2023-05-12T10:48:17.980Z,22.07
2023-05-12T10:49:19.474Z,22.09
2023-05-12T10:50:27.731Z,22.11
2023-05-12T10:51:44.408Z,22.10
2023-05-12T10:52:58.613Z,22.10
2023-05-12T10:54:07.008Z,22.11
2023-05-12T10:55:15.397Z,22.14
2023-05-12T10:56:26.297Z,22.19
2023-05-12T10:57:28.169Z,22.25
2023-05-12T10:58:30.147Z,22.29
2023-05-12T10:59:32.260Z,22.35
2023-05-12T11:00:43.962Z,22.41
2023-05-12T11:02:15.886Z,22.49
2023-05-12T11:03:25.581Z,22.56
2023-05-12T11:04:55.131Z,22.60
2023-05-12T11:06:03.004Z,22.67
2023-05-12T11:07:07.902Z,22.74
2023-05-12T11:08:10.048Z,22.80
2023-05-12T11:09:13.155Z,22.84
2023-05-12T11:10:15.518Z,22.85
2023-05-12T11:11:20.557Z,22.83
2023-05-12T11:12:22.762Z,22.79
2023-05-12T11:13:24.526Z,22.72
2023-05-12T11:14:26.770Z,22.69
2023-05-12T11:15:29.095Z,22.74
2023-05-12T11:16:30.654Z,22.89
2023-05-12T11:17:32.668Z,23.11
2023-05-12T11:18:34.218Z,23.35
2023-05-12T11:19:36.887Z,23.55
2023-05-12T11:20:38.518Z,23.72
2023-05-12T11:21:40.463Z,23.87
2023-05-12T11:22:42.802Z,23.99
2023-05-12T11:23:50.056Z,24.09
2023-05-12T11:24:52.070Z,24.17
2023-05-12T11:25:53.932Z,24.23
2023-05-12T11:26:56.679Z,24.27
2023-05-12T11:27:58.417Z,24.33
2023-05-12T11:29:06.063Z,24.39
2023-05-12T11:30:08.504Z,24.48
2023-05-12T11:31:18.209Z,24.56
2023-05-12T11:32:19.742Z,24.66
2023-05-12T11:33:22.227Z,24.74
2023-05-12T11:34:25.084Z,24.84
2023-05-12T11:35:30.136Z,24.95
2023-05-12T11:36:38.930Z,25.09
2023-05-12T11:37:41.905Z,25.20
2023-05-12T11:38:49.683Z,25.27
2023-05-12T11:39:52.268Z,25.35
2023-05-12T11:40:53.843Z,25.43
2023-05-12T11:42:12.048Z,25.54
2023-05-12T11:43:19.988Z,25.70
2023-05-12T11:44:23.418Z,25.79
2023-05-12T11:45:28.004Z,25.88
2023-05-12T11:46:30.403Z,25.97
2023-05-12T11:47:32.034Z,26.08
2023-05-12T11:48:34.243Z,26.19
2023-05-12T11:49:48.746Z,26.27
2023-05-12T11:50:50.619Z,26.33
2023-05-12T11:51:53.953Z,26.37
2023-05-12T11:52:57.117Z,26.43
2023-05-12T11:53:58.999Z,26.51
2023-05-12T11:55:00.618Z,26.60
2023-05-12T11:56:02.022Z,26.72
2023-05-12T11:57:03.943Z,26.85
2023-05-12T11:58:05.337Z,27.03
2023-05-12T11:59:06.832Z,27.21
2023-05-12T12:00:09.074Z,27.31
2023-05-12T12:01:11.998Z,27.42
2023-05-12T12:02:20.837Z,27.53
2023-05-12T12:03:24.036Z,27.63
2023-05-12T12:04:35.492Z,27.75
2023-05-12T12:05:37.513Z,27.92
2023-05-12T12:06:43.771Z,28.15
2023-05-12T12:07:45.150Z,28.27
2023-05-12T12:08:59.223Z,28.35
2023-05-12T12:10:13.605Z,28.51
2023-05-12T12:11:17.546Z,28.62
2023-05-12T12:12:18.924Z,28.67
2023-05-12T12:13:22.077Z,28.71
2023-05-12T12:14:24.308Z,28.80
2023-05-12T12:15:25.998Z,28.93
2023-05-12T12:16:29.010Z,29.11
2023-05-12T12:17:30.960Z,29.28
2023-05-12T12:18:32.710Z,29.46
2023-05-12T12:19:34.104Z,29.66
2023-05-12T12:20:35.899Z,29.84
2023-05-12T12:21:37.239Z,29.92
2023-05-12T12:22:38.586Z,29.95
2023-05-12T12:23:50.480Z,29.95
2023-05-12T12:24:53.099Z,29.91
2023-05-12T12:25:54.526Z,29.90
2023-05-12T12:26:56.054Z,29.96
2023-05-12T12:27:57.416Z,30.08
2023-05-12T12:28:58.776Z,30.28
2023-05-12T12:30:00.199Z,30.57
2023-05-12T12:31:02.243Z,30.66
2023-05-12T12:32:03.929Z,30.80
2023-05-12T12:33:05.470Z,30.95
2023-05-12T12:34:06.893Z,31.13
2023-05-12T12:35:08.450Z,31.33
2023-05-12T12:36:10.209Z,31.55
2023-05-12T12:37:11.792Z,31.80
2023-05-12T12:38:13.943Z,32.05
2023-05-12T12:39:17.186Z,32.34
2023-05-12T12:40:20.230Z,32.67
2023-05-12T12:41:22.057Z,32.95
2023-05-12T12:42:23.890Z,33.29
2023-05-12T12:43:26.589Z,33.66
2023-05-12T12:44:28.508Z,33.95
2023-05-12T12:45:30.011Z,34.22
2023-05-12T12:46:32.175Z,34.48
2023-05-12T12:47:34.239Z,34.66
2023-05-12T12:48:35.569Z,34.87
2023-05-12T12:49:37.000Z,34.96
2023-05-12T12:50:38.791Z,35.07
2023-05-12T12:51:46.185Z,35.25
2023-05-12T12:52:48.567Z,35.50
2023-05-12T12:53:49.972Z,35.75
2023-05-12T12:54:51.633Z,35.98
2023-05-12T12:55:53.142Z,36.18
2023-05-12T12:56:55.217Z,36.39
2023-05-12T12:57:57.249Z,36.54
2023-05-12T12:58:58.579Z,36.64
2023-05-12T13:00:00.889Z,36.69
2023-05-12T13:01:02.442Z,36.88
2023-05-12T13:02:04.199Z,36.85
2023-05-12T13:03:07.432Z,36.77
2023-05-12T13:04:08.876Z,36.77
2023-05-12T13:05:10.348Z,36.78
2023-05-12T13:06:11.932Z,36.87
2023-05-12T13:07:13.452Z,36.90
2023-05-12T13:08:16.656Z,36.94
2023-05-12T13:09:19.974Z,36.99
2023-05-12T13:10:21.716Z,37.10
2023-05-12T13:11:23.130Z,37.14
2023-05-12T13:12:25.304Z,37.30
2023-05-12T13:13:26.740Z,37.29
2023-05-12T13:14:28.126Z,37.25
2023-05-12T13:15:31.678Z,37.24
2023-05-12T13:16:33.351Z,37.36
2023-05-12T13:17:35.332Z,37.44
2023-05-12T13:18:36.884Z,37.56
2023-05-12T13:19:38.422Z,37.57
2023-05-12T13:20:40.143Z,37.60
2023-05-12T13:21:41.856Z,37.65
2023-05-12T13:22:44.065Z,37.53
2023-05-12T13:23:45.610Z,37.38
2023-05-12T13:24:47.134Z,37.26
2023-05-12T13:25:49.030Z,37.18
2023-05-12T13:26:51.029Z,37.12
2023-05-12T13:27:52.482Z,37.07
2023-05-12T13:28:53.877Z,36.95
2023-05-12T13:29:55.231Z,36.89
2023-05-12T13:30:56.647Z,36.85
2023-05-12T13:31:58.008Z,36.76
2023-05-12T13:32:59.900Z,36.61
2023-05-12T13:34:01.697Z,36.40
2023-05-12T13:35:03.721Z,36.33
2023-05-12T13:36:05.485Z,36.35
2023-05-12T13:37:06.941Z,36.28
2023-05-12T13:38:10.249Z,36.15
2023-05-12T13:39:12.087Z,35.94
2023-05-12T13:40:13.868Z,35.75
2023-05-12T13:41:15.560Z,35.69
2023-05-12T13:42:17.332Z,35.61
2023-05-12T13:43:18.911Z,35.49
2023-05-12T13:44:20.295Z,35.41
2023-05-12T13:45:22.821Z,35.44
2023-05-12T13:46:24.727Z,35.58
2023-05-12T13:47:26.438Z,35.66
2023-05-12T13:48:28.336Z,35.66
2023-05-12T13:49:29.850Z,35.64
2023-05-12T13:50:33.426Z,35.64
2023-05-12T13:51:35.309Z,35.68
2023-05-12T13:52:36.864Z,35.76
2023-05-12T13:53:38.950Z,35.86
2023-05-12T13:54:48.606Z,35.99
2023-05-12T13:55:50.150Z,36.10
2023-05-12T13:56:51.573Z,36.00
2023-05-12T13:57:53.019Z,35.79
2023-05-12T13:58:54.339Z,35.70
2023-05-12T13:59:57.761Z,35.74
2023-05-12T14:00:59.593Z,35.92
2023-05-12T14:02:01.704Z,35.97
2023-05-12T14:03:03.355Z,35.84
2023-05-12T14:04:04.855Z,35.75
2023-05-12T14:05:06.751Z,35.70
2023-05-12T14:06:08.671Z,35.63
2023-05-12T14:07:10.033Z,35.56
2023-05-12T14:08:11.480Z,35.50
2023-05-12T14:09:13.646Z,35.48
2023-05-12T14:10:15.479Z,35.50
2023-05-12T14:11:16.944Z,35.49
2023-05-12T14:12:18.382Z,35.41
2023-05-12T14:13:19.932Z,35.35
2023-05-12T14:14:21.397Z,35.26
2023-05-12T14:15:36.057Z,35.21
2023-05-12T14:16:41.864Z,35.06
2023-05-12T14:17:43.325Z,35.06
2023-05-12T14:18:45.101Z,35.08
2023-05-12T14:19:46.574Z,35.07
2023-05-12T14:20:48.105Z,35.10
2023-05-12T14:21:49.556Z,35.17
2023-05-12T14:22:51.672Z,35.28
2023-05-12T14:23:53.328Z,35.37
2023-05-12T14:24:55.214Z,35.56
2023-05-12T14:25:56.582Z,35.70
2023-05-12T14:26:58.965Z,35.83
2023-05-12T14:28:00.584Z,35.88
2023-05-12T14:29:02.380Z,35.92
2023-05-12T14:30:06.790Z,35.92
2023-05-12T14:31:08.259Z,35.89
2023-05-12T14:32:10.178Z,35.92
2023-05-12T14:33:11.856Z,35.94
2023-05-12T14:34:13.494Z,35.97
2023-05-12T14:35:15.084Z,35.86
2023-05-12T14:36:16.463Z,35.73
2023-05-12T14:37:17.842Z,35.53
2023-05-12T14:38:19.244Z,35.39
2023-05-12T14:39:20.613Z,35.32
2023-05-12T14:40:22.870Z,35.19
2023-05-12T14:41:25.058Z,35.08
2023-05-12T14:42:28.685Z,35.07
2023-05-12T14:43:30.268Z,35.06
2023-05-12T14:44:31.863Z,35.07
2023-05-12T14:45:33.307Z,35.10
2023-05-12T14:46:34.700Z,35.06
2023-05-12T14:47:37.039Z,34.99
2023-05-12T14:48:38.441Z,35.04
2023-05-12T14:49:39.796Z,35.08
2023-05-12T14:50:42.300Z,35.12
2023-05-12T14:51:43.723Z,35.19
2023-05-12T14:52:45.767Z,35.31
2023-05-12T14:53:47.186Z,35.46
2023-05-12T14:54:48.588Z,35.56
2023-05-12T14:55:50.982Z,35.71
2023-05-12T14:56:52.653Z,35.72
2023-05-12T14:57:54.241Z,35.74
2023-05-12T14:58:55.879Z,35.84
2023-05-12T14:59:58.047Z,35.96
2023-05-12T15:01:01.391Z,36.11
2023-05-12T15:02:03.188Z,36.15
2023-05-12T15:03:04.837Z,36.19
2023-05-12T15:04:06.301Z,36.20
2023-05-12T15:05:09.252Z,36.19
2023-05-12T15:06:10.777Z,36.21
2023-05-12T15:07:12.226Z,36.15
2023-05-12T15:08:14.371Z,36.05